createdAt,value
2017-08-30T00:01:23.910Z,99.90
2017-08-30T00:03:52.190Z,99.90
2017-08-30T00:06:20.467Z,99.90
2017-08-30T00:08:48.760Z,99.90
2017-08-30T00:11:18.035Z,99.90
2017-08-30T00:13:46.310Z,99.90
2017-08-30T00:16:14.592Z,99.90
2017-08-30T00:18:42.876Z,99.90
2017-08-30T00:21:11.150Z,99.90
2017-08-30T00:23:39.449Z,99.90
2017-08-30T00:26:20.593Z,99.90
2017-08-30T00:28:48.992Z,99.90
2017-08-30T00:31:17.347Z,99.90
2017-08-30T00:33:46.427Z,99.90
2017-08-30T00:36:14.803Z,99.90
2017-08-30T00:38:43.052Z,99.90
2017-08-30T00:41:11.316Z,99.90
2017-08-30T00:43:39.657Z,99.90
2017-08-30T00:46:08.025Z,99.90
2017-08-30T00:48:36.299Z,99.90
2017-08-30T00:51:04.600Z,99.90
2017-08-30T00:53:32.976Z,99.90
2017-08-30T00:56:01.242Z,99.90
2017-08-30T00:58:29.551Z,99.90
2017-08-30T01:00:58.582Z,99.90
2017-08-30T01:03:26.867Z,99.90
2017-08-30T01:05:55.273Z,99.90
2017-08-30T01:08:23.673Z,99.90
2017-08-30T01:10:51.950Z,99.90
2017-08-30T01:13:20.306Z,99.90
2017-08-30T01:15:48.672Z,99.90
2017-08-30T01:18:16.969Z,99.90
2017-08-30T01:20:45.364Z,99.90
2017-08-30T01:23:13.720Z,99.90
2017-08-30T01:25:42.007Z,99.90
2017-08-30T01:28:10.291Z,99.90
2017-08-30T01:30:38.547Z,99.90
2017-08-30T01:33:06.812Z,99.90
2017-08-30T01:35:35.195Z,99.90
2017-08-30T01:38:03.493Z,99.90
2017-08-30T01:40:31.867Z,99.90
2017-08-30T01:43:00.243Z,99.90
2017-08-30T01:45:28.515Z,99.90
2017-08-30T01:47:56.770Z,99.90
2017-08-30T01:50:25.070Z,99.90
2017-08-30T01:52:53.336Z,99.90
2017-08-30T01:55:21.620Z,99.90
2017-08-30T01:57:49.940Z,99.90
2017-08-30T02:00:18.200Z,99.90
2017-08-30T02:02:47.277Z,99.90
2017-08-30T02:05:15.567Z,99.90
2017-08-30T02:07:43.833Z,99.90
2017-08-30T02:10:12.146Z,99.90
2017-08-30T02:12:41.234Z,99.90
2017-08-30T02:15:10.274Z,99.90
2017-08-30T02:17:38.559Z,99.90
2017-08-30T02:20:06.953Z,99.90
2017-08-30T02:22:35.246Z,99.90
2017-08-30T02:25:03.506Z,99.90
2017-08-30T02:27:31.801Z,99.90
2017-08-30T02:30:00.175Z,99.90
2017-08-30T02:32:28.455Z,99.90
2017-08-30T02:34:56.819Z,99.90
2017-08-30T02:37:25.086Z,99.90
2017-08-30T02:39:53.386Z,99.90
2017-08-30T02:42:21.666Z,99.90
2017-08-30T02:44:49.935Z,99.90
2017-08-30T02:47:18.302Z,99.90
2017-08-30T02:49:46.644Z,99.90
2017-08-30T02:52:14.911Z,99.90
2017-08-30T02:54:43.231Z,99.90
2017-08-30T02:57:11.625Z,99.90
2017-08-30T02:59:39.923Z,99.90
2017-08-30T03:02:08.164Z,99.90
2017-08-30T03:04:36.464Z,99.90
2017-08-30T03:07:04.735Z,99.90
2017-08-30T03:09:33.001Z,99.90
2017-08-30T03:12:01.388Z,99.90
2017-08-30T03:14:29.769Z,99.90
2017-08-30T03:16:58.054Z,99.90
2017-08-30T03:19:26.342Z,99.90
2017-08-30T03:21:54.632Z,99.90
2017-08-30T03:24:23.705Z,99.90
2017-08-30T03:26:52.176Z,99.90
2017-08-30T03:29:20.457Z,99.90
2017-08-30T03:31:48.733Z,99.90
2017-08-30T03:34:17.102Z,99.90
2017-08-30T03:36:45.395Z,99.90
2017-08-30T03:39:13.667Z,99.90
2017-08-30T03:41:41.956Z,99.90
2017-08-30T03:44:10.315Z,99.90
2017-08-30T03:46:38.592Z,99.90
2017-08-30T03:49:06.973Z,99.90
2017-08-30T03:51:35.246Z,99.90
2017-08-30T03:54:03.508Z,99.90
2017-08-30T03:56:31.856Z,99.90
2017-08-30T03:59:00.284Z,99.90
2017-08-30T04:01:28.554Z,99.90
2017-08-30T04:03:56.827Z,99.90
2017-08-30T04:06:25.096Z,99.90
2017-08-30T04:08:53.395Z,99.90
2017-08-30T04:11:21.672Z,99.90
2017-08-30T04:13:50.049Z,99.90
2017-08-30T04:16:18.326Z,99.90
2017-08-30T04:18:46.709Z,99.90
2017-08-30T04:21:14.975Z,99.90
2017-08-30T04:23:43.283Z,99.90
2017-08-30T04:26:11.561Z,99.90
2017-08-30T04:28:40.625Z,99.90
2017-08-30T04:31:08.895Z,99.90
2017-08-30T04:33:37.281Z,99.90
2017-08-30T04:36:05.530Z,99.90
2017-08-30T04:38:33.795Z,99.90
2017-08-30T04:41:02.120Z,99.90
2017-08-30T04:43:30.387Z,99.90
2017-08-30T04:45:58.668Z,99.90
2017-08-30T04:48:26.964Z,99.90
2017-08-30T04:50:55.247Z,99.90
2017-08-30T04:53:23.609Z,99.90
2017-08-30T04:55:51.986Z,99.90
2017-08-30T04:58:20.359Z,99.90
2017-08-30T05:00:48.636Z,99.90
2017-08-30T05:03:17.038Z,99.90
2017-08-30T05:05:45.399Z,99.90
2017-08-30T05:08:13.746Z,99.90
2017-08-30T05:10:42.107Z,99.90
2017-08-30T05:13:10.399Z,99.90
2017-08-30T05:15:38.757Z,99.90
2017-08-30T05:18:07.140Z,99.90
2017-08-30T05:20:35.413Z,99.90
2017-08-30T05:23:03.775Z,99.90
2017-08-30T05:25:32.127Z,99.90
2017-08-30T05:28:01.179Z,99.90
2017-08-30T05:30:29.577Z,99.90
2017-08-30T05:32:57.871Z,99.90
2017-08-30T05:35:26.226Z,99.90
2017-08-30T05:37:54.521Z,99.90
2017-08-30T05:40:22.834Z,99.90
2017-08-30T05:42:51.101Z,99.90
2017-08-30T05:45:20.168Z,99.90
2017-08-30T05:47:48.438Z,99.90
2017-08-30T05:50:16.708Z,99.90
2017-08-30T05:52:45.012Z,99.90
2017-08-30T05:55:13.359Z,99.90
2017-08-30T05:57:41.645Z,99.90
2017-08-30T06:00:09.953Z,99.90
2017-08-30T06:02:38.241Z,99.90
2017-08-30T06:05:06.648Z,99.90
2017-08-30T06:07:34.943Z,99.90
2017-08-30T06:10:03.287Z,99.90
2017-08-30T06:12:31.771Z,99.90
2017-08-30T06:15:00.128Z,99.90
2017-08-30T06:17:28.405Z,99.90
2017-08-30T06:19:57.431Z,99.90
2017-08-30T06:22:25.831Z,99.90
2017-08-30T06:24:54.093Z,99.90
2017-08-30T06:27:22.493Z,99.90
2017-08-30T06:29:50.857Z,99.90
2017-08-30T06:32:19.153Z,99.90
2017-08-30T06:34:47.513Z,99.90
2017-08-30T06:37:15.759Z,99.90
2017-08-30T06:42:18.601Z,99.90
2017-08-30T06:44:46.987Z,99.90
2017-08-30T06:47:15.271Z,99.90
2017-08-30T06:49:43.537Z,99.90
2017-08-30T06:52:11.822Z,99.90
2017-08-30T06:54:40.091Z,99.90
2017-08-30T06:57:08.457Z,99.90
2017-08-30T06:59:36.724Z,99.90
2017-08-30T07:02:05.039Z,99.90
2017-08-30T07:04:33.332Z,99.90
2017-08-30T07:07:01.610Z,99.90
2017-08-30T07:09:29.917Z,99.90
2017-08-30T07:11:58.185Z,99.90
2017-08-30T07:14:26.451Z,99.90
2017-08-30T07:16:54.781Z,99.90
2017-08-30T07:19:23.069Z,99.90
2017-08-30T07:21:51.407Z,99.90
2017-08-30T07:24:19.654Z,99.90
2017-08-30T07:26:47.993Z,99.90
2017-08-30T07:29:16.379Z,99.90
2017-08-30T07:31:44.635Z,99.90
2017-08-30T07:34:13.028Z,99.90
2017-08-30T07:36:41.287Z,99.90
2017-08-30T07:39:09.555Z,99.90
2017-08-30T07:41:37.924Z,99.90
2017-08-30T07:44:06.193Z,99.90
2017-08-30T07:46:34.523Z,99.90
2017-08-30T07:49:02.929Z,99.90
2017-08-30T07:51:31.200Z,99.90
2017-08-30T07:53:59.549Z,99.90
2017-08-30T07:56:27.827Z,99.90
2017-08-30T07:58:56.129Z,99.90
2017-08-30T08:01:24.393Z,99.90
2017-08-30T08:03:52.677Z,99.90
2017-08-30T08:06:20.975Z,99.90
2017-08-30T08:08:49.231Z,99.90
2017-08-30T08:11:17.531Z,99.90
2017-08-30T08:13:45.865Z,99.90
2017-08-30T08:16:14.138Z,99.90
2017-08-30T08:18:42.410Z,99.90
2017-08-30T08:21:10.684Z,99.90
2017-08-30T08:23:38.970Z,99.90
2017-08-30T08:26:07.247Z,99.90
2017-08-30T08:28:35.509Z,99.90
2017-08-30T08:31:03.817Z,99.90
2017-08-30T08:33:32.093Z,99.90
2017-08-30T08:36:00.455Z,99.90
2017-08-30T08:38:28.837Z,99.90
2017-08-30T08:40:57.093Z,99.80
2017-08-30T08:43:25.402Z,99.90
2017-08-30T08:45:53.682Z,99.60
2017-08-30T08:48:21.965Z,99.40
2017-08-30T08:50:50.223Z,99.30
2017-08-30T08:53:18.603Z,99.10
2017-08-30T08:55:46.867Z,99.00
2017-08-30T08:58:15.131Z,98.80
2017-08-30T09:00:43.397Z,98.00
2017-08-30T09:03:11.711Z,98.00
2017-08-30T09:05:39.973Z,97.70
2017-08-30T09:08:08.248Z,97.80
2017-08-30T09:10:36.537Z,97.00
2017-08-30T09:13:04.802Z,96.40
2017-08-30T09:15:33.078Z,96.30
2017-08-30T09:18:01.375Z,96.40
2017-08-30T09:20:29.748Z,96.30
2017-08-30T09:22:57.997Z,96.10
2017-08-30T09:25:26.297Z,96.00
2017-08-30T09:27:54.571Z,95.50
2017-08-30T09:30:22.852Z,95.40
2017-08-30T09:32:51.111Z,95.10
2017-08-30T09:35:19.406Z,95.30
2017-08-30T09:37:47.685Z,94.90
2017-08-30T09:40:15.957Z,95.40
2017-08-30T09:42:44.367Z,95.00
2017-08-30T09:45:12.711Z,94.00
2017-08-30T09:47:41.095Z,94.40
2017-08-30T09:50:09.358Z,93.20
2017-08-30T09:52:37.646Z,93.10
2017-08-30T09:55:05.923Z,92.40
2017-08-30T09:57:34.233Z,92.20
2017-08-30T10:00:02.590Z,92.10
2017-08-30T10:02:30.867Z,92.00
2017-08-30T10:04:59.259Z,91.80
2017-08-30T10:07:27.647Z,91.50
2017-08-30T10:09:56.019Z,91.10
2017-08-30T10:12:25.068Z,90.80
2017-08-30T10:14:53.355Z,90.80
2017-08-30T10:17:21.635Z,90.70
2017-08-30T10:19:49.918Z,90.40
2017-08-30T10:22:18.229Z,90.00
2017-08-30T10:24:46.549Z,90.00
2017-08-30T10:27:14.879Z,89.50
2017-08-30T10:29:43.243Z,90.40
2017-08-30T10:32:11.623Z,87.70
2017-08-30T10:34:39.875Z,86.40
2017-08-30T10:37:08.202Z,86.50
2017-08-30T10:39:36.577Z,86.90
2017-08-30T10:42:04.835Z,84.50
2017-08-30T10:44:33.115Z,84.60
2017-08-30T10:47:01.501Z,81.10
2017-08-30T10:49:29.777Z,81.00
2017-08-30T10:51:58.169Z,80.50
2017-08-30T10:54:26.526Z,80.90
2017-08-30T10:56:54.909Z,79.10
2017-08-30T10:59:23.195Z,78.70
2017-08-30T11:01:51.574Z,79.90
2017-08-30T11:04:19.941Z,78.40
2017-08-30T11:06:48.219Z,77.80
2017-08-30T11:09:16.503Z,77.60
2017-08-30T11:11:44.791Z,77.70
2017-08-30T11:14:13.063Z,76.00
2017-08-30T11:16:41.424Z,75.80
2017-08-30T11:19:09.802Z,74.40
2017-08-30T11:21:38.065Z,74.00
2017-08-30T11:24:06.353Z,74.80
2017-08-30T11:26:34.604Z,74.00
2017-08-30T11:29:03.860Z,75.00
2017-08-30T11:31:32.121Z,72.50
2017-08-30T11:34:00.506Z,72.00
2017-08-30T11:36:28.801Z,71.40
2017-08-30T11:38:57.053Z,71.40
2017-08-30T11:41:25.439Z,70.50
2017-08-30T11:43:53.684Z,70.40
2017-08-30T11:46:21.982Z,69.50
2017-08-30T11:48:50.273Z,70.80
2017-08-30T11:51:18.649Z,68.80
2017-08-30T11:53:46.896Z,66.10
2017-08-30T11:56:15.202Z,67.10
2017-08-30T11:58:43.461Z,65.80
2017-08-30T12:01:11.789Z,65.80
2017-08-30T12:03:40.049Z,63.00
2017-08-30T12:06:08.403Z,63.70
2017-08-30T12:08:36.673Z,63.20
2017-08-30T12:11:05.042Z,64.10
2017-08-30T12:13:33.439Z,61.50
2017-08-30T12:16:01.702Z,62.20
2017-08-30T12:18:29.980Z,62.60
2017-08-30T12:20:58.249Z,61.70
2017-08-30T12:23:26.641Z,60.70
2017-08-30T12:25:54.903Z,61.80
2017-08-30T12:28:23.289Z,60.00
2017-08-30T12:30:51.656Z,60.00
2017-08-30T12:33:20.053Z,57.90
2017-08-30T12:35:48.332Z,58.20
2017-08-30T12:38:22.403Z,57.10
2017-08-30T12:40:50.718Z,56.70
2017-08-30T12:43:19.088Z,56.80
2017-08-30T12:45:47.342Z,55.60
2017-08-30T12:48:15.605Z,54.20
2017-08-30T12:50:43.935Z,53.50
2017-08-30T12:53:12.502Z,53.20
2017-08-30T12:55:40.899Z,53.70
2017-08-30T12:58:09.276Z,53.10
2017-08-30T13:00:37.541Z,52.90
2017-08-30T13:03:05.801Z,52.10
2017-08-30T13:05:34.204Z,53.10
2017-08-30T13:08:02.456Z,53.50
2017-08-30T13:10:30.766Z,50.90
2017-08-30T13:12:59.033Z,51.10
2017-08-30T13:15:27.325Z,49.70
2017-08-30T13:17:55.687Z,48.30
2017-08-30T13:20:24.074Z,47.50
2017-08-30T13:22:52.394Z,46.60
2017-08-30T13:25:20.722Z,45.80
2017-08-30T13:27:49.096Z,44.90
2017-08-30T13:30:17.364Z,45.10
2017-08-30T13:32:45.761Z,44.80
2017-08-30T13:35:14.051Z,46.30
2017-08-30T13:37:42.432Z,45.80
2017-08-30T13:40:10.716Z,46.10
2017-08-30T13:42:39.168Z,47.40
2017-08-30T13:45:07.421Z,47.90
2017-08-30T13:47:35.722Z,49.10
2017-08-30T13:50:04.105Z,49.40
2017-08-30T13:52:32.364Z,50.00
2017-08-30T13:55:00.646Z,49.80
2017-08-30T13:57:28.949Z,50.30
2017-08-30T13:59:57.328Z,51.80
2017-08-30T14:02:25.589Z,50.70
2017-08-30T14:04:53.974Z,50.50
2017-08-30T14:07:22.260Z,49.70
2017-08-30T14:09:50.537Z,51.10
2017-08-30T14:12:18.811Z,48.20
2017-08-30T14:14:47.179Z,47.00
2017-08-30T14:17:15.466Z,44.10
2017-08-30T14:19:43.842Z,44.60
2017-08-30T14:22:12.227Z,44.90
2017-08-30T14:24:40.606Z,45.00
2017-08-30T14:27:08.885Z,44.70
2017-08-30T14:29:37.153Z,45.00
2017-08-30T14:32:05.525Z,44.30
2017-08-30T14:34:33.782Z,44.00
2017-08-30T14:37:02.074Z,41.90
2017-08-30T14:39:30.351Z,42.70
2017-08-30T14:41:58.632Z,43.60
2017-08-30T14:44:26.910Z,43.30
2017-08-30T14:46:55.181Z,43.90
2017-08-30T14:49:23.467Z,43.40
2017-08-30T14:51:51.854Z,40.50
2017-08-30T14:54:20.133Z,39.40
2017-08-30T14:56:48.401Z,37.80
2017-08-30T14:59:16.673Z,37.40
2017-08-30T15:01:44.942Z,38.30
2017-08-30T15:04:13.215Z,38.20
2017-08-30T15:06:41.507Z,37.90
2017-08-30T15:09:09.881Z,36.90
2017-08-30T15:11:38.169Z,37.90
2017-08-30T15:14:06.453Z,37.20
2017-08-30T15:16:34.738Z,37.90
2017-08-30T15:19:03.001Z,37.40
2017-08-30T15:21:32.061Z,37.50
2017-08-30T15:24:00.362Z,37.60
2017-08-30T15:26:28.643Z,37.80
2017-08-30T15:28:56.922Z,36.60
2017-08-30T15:31:25.303Z,36.80
2017-08-30T15:33:53.549Z,37.60
2017-08-30T15:36:21.956Z,37.40
2017-08-30T15:38:50.219Z,37.30
2017-08-30T15:41:18.512Z,38.20
2017-08-30T15:43:46.769Z,37.70
2017-08-30T15:46:15.055Z,38.30
2017-08-30T15:48:43.340Z,39.50
2017-08-30T15:51:11.621Z,39.10
2017-08-30T15:53:39.906Z,39.80
2017-08-30T15:56:08.165Z,40.20
2017-08-30T15:58:37.083Z,41.30
2017-08-30T16:01:05.430Z,41.30
2017-08-30T16:03:33.836Z,40.40
2017-08-30T16:06:02.095Z,40.80
2017-08-30T16:08:30.478Z,41.50
2017-08-30T16:10:58.742Z,41.40
2017-08-30T16:13:27.121Z,41.80
2017-08-30T16:15:55.423Z,42.40
2017-08-30T16:18:23.683Z,44.10
2017-08-30T16:20:52.084Z,45.30
2017-08-30T16:23:20.370Z,46.30
2017-08-30T16:25:48.645Z,47.20
2017-08-30T16:28:17.013Z,47.70
2017-08-30T16:30:45.407Z,47.70
2017-08-30T16:33:13.657Z,47.80
2017-08-30T16:35:42.035Z,48.40
2017-08-30T16:38:10.294Z,49.20
2017-08-30T16:40:38.591Z,49.40
2017-08-30T16:43:06.874Z,49.50
2017-08-30T16:45:35.265Z,49.90
2017-08-30T16:48:03.519Z,50.00
2017-08-30T16:50:32.006Z,50.50
2017-08-30T16:53:00.302Z,51.00
2017-08-30T16:55:29.333Z,51.30
2017-08-30T16:57:57.613Z,51.30
2017-08-30T17:00:25.883Z,51.30
2017-08-30T17:02:54.229Z,52.00
2017-08-30T17:05:22.496Z,51.40
2017-08-30T17:07:50.878Z,52.40
2017-08-30T17:10:19.155Z,52.60
2017-08-30T17:12:47.436Z,53.30
2017-08-30T17:15:15.685Z,53.00
2017-08-30T17:17:44.005Z,53.30
2017-08-30T17:20:12.464Z,53.50
2017-08-30T17:22:40.859Z,53.80
2017-08-30T17:25:09.159Z,54.30
2017-08-30T17:27:38.213Z,55.00
2017-08-30T17:30:06.489Z,54.90
2017-08-30T17:32:34.754Z,55.10
2017-08-30T17:35:03.033Z,55.60
2017-08-30T17:37:31.293Z,55.50
2017-08-30T17:39:59.608Z,55.60
2017-08-30T17:42:27.863Z,55.50
2017-08-30T17:44:56.176Z,55.90
2017-08-30T17:47:24.429Z,56.40
2017-08-30T17:49:52.732Z,56.70
2017-08-30T17:52:21.063Z,57.00
2017-08-30T17:54:49.324Z,57.60
2017-08-30T17:57:17.661Z,57.40
2017-08-30T17:59:46.018Z,57.70
2017-08-30T18:02:14.427Z,58.50
2017-08-30T18:04:42.697Z,58.20
2017-08-30T18:07:10.995Z,58.70
2017-08-30T18:09:39.268Z,59.10
2017-08-30T18:12:07.627Z,59.60
2017-08-30T18:14:35.880Z,59.70
2017-08-30T18:17:04.285Z,60.10
2017-08-30T18:19:32.634Z,61.20
2017-08-30T18:22:00.924Z,61.50
2017-08-30T18:24:29.204Z,61.80
2017-08-30T18:26:57.468Z,62.10
2017-08-30T18:29:25.862Z,62.70
2017-08-30T18:31:54.173Z,63.00
2017-08-30T18:34:23.214Z,63.70
2017-08-30T18:36:51.484Z,63.70
2017-08-30T18:39:19.789Z,64.10
2017-08-30T18:41:48.059Z,64.20
2017-08-30T18:44:16.329Z,65.00
2017-08-30T18:46:44.616Z,65.30
2017-08-30T18:49:12.893Z,65.70
2017-08-30T18:51:41.149Z,66.20
2017-08-30T18:54:10.197Z,66.90
2017-08-30T18:56:38.465Z,66.80
2017-08-30T18:59:06.777Z,66.60
2017-08-30T19:01:35.037Z,66.90
2017-08-30T19:04:03.346Z,67.50
2017-08-30T19:06:31.623Z,67.70
2017-08-30T19:08:59.893Z,67.80
2017-08-30T19:11:28.196Z,68.50
2017-08-30T19:13:56.470Z,68.70
2017-08-30T19:16:24.901Z,69.10
2017-08-30T19:18:53.315Z,69.80
2017-08-30T19:21:21.661Z,69.80
2017-08-30T19:23:49.924Z,69.90
2017-08-30T19:26:18.238Z,70.10
2017-08-30T19:28:46.573Z,70.40
2017-08-30T19:31:14.840Z,70.90
2017-08-30T19:33:43.135Z,71.10
2017-08-30T19:36:11.396Z,71.10
2017-08-30T19:38:39.703Z,71.70
2017-08-30T19:41:08.098Z,71.50
2017-08-30T19:43:37.142Z,72.40
2017-08-30T19:46:05.431Z,72.30
2017-08-30T19:48:33.679Z,72.10
2017-08-30T19:51:01.955Z,72.80
2017-08-30T19:53:30.234Z,72.90
2017-08-30T19:55:58.510Z,73.00
2017-08-30T19:58:26.786Z,73.30
2017-08-30T20:00:55.068Z,73.20
2017-08-30T20:03:23.376Z,73.20
2017-08-30T20:05:51.635Z,73.10
2017-08-30T20:08:19.949Z,73.20
2017-08-30T20:10:48.311Z,72.90
2017-08-30T20:13:16.585Z,72.90
2017-08-30T20:15:44.896Z,72.90
2017-08-30T20:18:13.171Z,73.10
2017-08-30T20:20:41.490Z,73.20
2017-08-30T20:23:09.761Z,73.20
2017-08-30T20:25:38.053Z,74.20
2017-08-30T20:28:06.313Z,74.50
2017-08-30T20:30:34.688Z,74.50
2017-08-30T20:33:02.999Z,74.80
2017-08-30T20:35:31.277Z,74.50
2017-08-30T20:37:59.545Z,75.60
2017-08-30T20:40:27.845Z,74.60
2017-08-30T20:42:56.112Z,74.60
2017-08-30T20:45:24.387Z,74.90
2017-08-30T20:47:52.706Z,74.80
2017-08-30T20:50:21.008Z,75.20
2017-08-30T20:52:49.301Z,75.00
2017-08-30T20:55:17.656Z,75.10
2017-08-30T20:57:45.949Z,75.90
2017-08-30T21:00:14.204Z,75.90
2017-08-30T21:02:42.598Z,75.50
2017-08-30T21:05:10.840Z,76.40
2017-08-30T21:07:39.143Z,76.20
2017-08-30T21:10:07.464Z,76.30
2017-08-30T21:12:36.529Z,76.50
2017-08-30T21:15:04.802Z,76.50
2017-08-30T21:17:33.196Z,76.80
2017-08-30T21:20:01.458Z,77.30
2017-08-30T21:22:29.745Z,77.30
2017-08-30T21:24:58.106Z,77.40
2017-08-30T21:27:26.491Z,77.60
2017-08-30T21:29:54.775Z,77.30
2017-08-30T21:32:23.191Z,78.20
2017-08-30T21:34:51.527Z,77.70
2017-08-30T21:37:19.786Z,77.80
2017-08-30T21:39:48.081Z,78.10
2017-08-30T21:42:16.369Z,78.50
2017-08-30T21:44:44.654Z,78.50
2017-08-30T21:47:12.917Z,78.60
2017-08-30T21:49:41.246Z,78.60
2017-08-30T21:52:09.578Z,79.00
2017-08-30T21:54:37.966Z,78.70
2017-08-30T21:57:06.223Z,79.00
2017-08-30T21:59:34.506Z,79.20
2017-08-30T22:02:02.818Z,79.00
2017-08-30T22:04:31.158Z,80.30
2017-08-30T22:06:59.440Z,79.50
2017-08-30T22:09:27.735Z,79.60
2017-08-30T22:11:56.072Z,79.50
2017-08-30T22:14:24.466Z,79.70
2017-08-30T22:16:52.892Z,80.40
2017-08-30T22:19:21.282Z,80.60
2017-08-30T22:21:49.562Z,80.50
2017-08-30T22:24:17.839Z,80.80
2017-08-30T22:26:46.097Z,80.60
2017-08-30T22:29:14.497Z,80.40
2017-08-30T22:31:42.798Z,80.70
2017-08-30T22:34:11.858Z,81.10
2017-08-30T22:36:40.095Z,81.10
2017-08-30T22:39:08.400Z,80.80
2017-08-30T22:41:36.685Z,81.50
2017-08-30T22:44:05.061Z,81.40
2017-08-30T22:46:33.336Z,82.00
2017-08-30T22:49:01.718Z,81.10
2017-08-30T22:51:29.989Z,81.40
2017-08-30T22:53:58.373Z,81.20
2017-08-30T22:56:26.629Z,82.10
2017-08-30T22:58:54.915Z,82.20
2017-08-30T23:01:23.172Z,81.90
2017-08-30T23:03:51.447Z,81.90
2017-08-30T23:06:19.722Z,82.70
2017-08-30T23:08:47.968Z,82.30
2017-08-30T23:11:16.299Z,82.90
2017-08-30T23:13:44.605Z,83.30
2017-08-30T23:16:12.884Z,82.90
2017-08-30T23:18:41.145Z,83.50
2017-08-30T23:21:09.425Z,84.20
2017-08-30T23:23:37.706Z,83.30
2017-08-30T23:26:06.010Z,83.50
2017-08-30T23:28:34.366Z,84.50
2017-08-30T23:31:02.677Z,84.00
2017-08-30T23:33:31.729Z,84.30
2017-08-30T23:36:00.019Z,84.30
2017-08-30T23:38:28.266Z,85.10
2017-08-30T23:40:56.550Z,84.40
2017-08-30T23:43:24.833Z,85.30
2017-08-30T23:45:53.141Z,85.20
2017-08-30T23:48:21.420Z,84.90
2017-08-30T23:50:49.697Z,85.10
2017-08-30T23:53:18.048Z,84.20
2017-08-30T23:55:46.339Z,84.40
2017-08-30T23:58:14.625Z,84.70
